Flight Track Log - Related Links

Times and Time Zones

All times are in EDT time to prevent confusion due to time zone crossing. See the N173AA flight status page for this flight to view local times or setup timezone preferences in your user account.

Time Position Orientation Groundspeed Altitude Reporting Facility
EDT Latitude Longitude Course Direction KTS MPH feet Rate Location/Type
Fri 08:59:00 AM 33.3815 -86.4870 239° Southwest  Level FlightAware Approximate
Fri 08:59:24 AM 33.6089 -85.9144 247° West 160 184 5,000  Level Atlanta Center
Fri 09:00:00 AM 33.3422 -86.5903 248° West  Level FlightAware Approximate
Fri 09:00:24 AM 33.5783 -85.9986 246° West 224 258 6,100  Level Atlanta Center
Fri 09:01:00 AM 33.3069 -86.6961 248° West  Level FlightAware Approximate
Fri 09:01:24 AM 33.5603 -86.0781 255° West 246 283 7,400  Level Atlanta Center
Fri 09:02:00 AM 33.2743 -86.8028 253° West  Level FlightAware Approximate
Fri 09:02:24 AM 33.5403 -86.1497 252° West 253 291 9,200  Level Atlanta Center
Fri 09:03:00 AM 33.2417 -86.9096 249° West  Level FlightAware Approximate
Fri 09:03:24 AM 33.5142 -86.2189 246° West 236 272 10,800  Level Atlanta Center
Fri 09:04:24 AM 33.4878 -86.2881 245° Southwest 230 265 12,000 1,350 Climbing Atlanta Center
Fri 09:05:24 AM 33.4675 -86.3622 252° West 236 272 13,500 1,450 Climbing Atlanta Center
Fri 09:06:24 AM 33.4475 -86.4314 251° West 236 272 14,900 1,300 Climbing Atlanta Center
Fri 09:07:24 AM 33.4275 -86.4956 250° West 225 259 16,100 1,200 Climbing Atlanta Center
Fri 09:08:24 AM 33.4011 -86.5644 245° Southwest 225 259 17,300 1,200 Climbing Atlanta Center
Fri 09:09:24 AM 33.3767 -86.6308 246° West 230 265 18,500 1,050 Climbing Atlanta Center
Fri 09:10:24 AM 33.3542 -86.7022 249° West 236 272 19,400 750 Climbing Atlanta Center
Fri 09:11:24 AM 33.3297 -86.7811 250° West 242 278 20,000 300 Climbing Atlanta Center
Fri 09:12:24 AM 33.3028 -86.8647 249° West 255 293 20,000  Level Atlanta Center
Fri 09:13:24 AM 33.2692 -86.9606 247° West 280 322 20,000 100 Level Atlanta Center
Fri 09:14:24 AM 33.2356 -87.0564 247° West 301 346 20,200 400 Climbing Atlanta Center
Fri 09:15:24 AM 33.2128 -87.1350 251° West 301 346 20,800 950 Climbing Atlanta Center
Fri 09:16:24 AM 33.1833 -87.2233 248° West 296 341 22,100 1,200 Climbing Atlanta Center
Fri 09:17:24 AM 33.1561 -87.3017 247° West 279 321 23,200 950 Climbing Atlanta Center
Fri 09:18:24 AM 33.1292 -87.3775 247° West 268 308 24,000 766 Climbing Atlanta Center
Fri 09:20:32 AM 33.0706 -87.5633 249° West 277 319 25,600 574 Climbing Memphis Center
Fri 09:21:32 AM 33.0389 -87.6461 245° Southwest 277 319 25,800 200 Climbing Memphis Center
Fri 09:22:32 AM 33.0075 -87.7364 248° West 282 325 26,000 100 Climbing Memphis Center
Fri 09:23:32 AM 32.9781 -87.8289 249° West 289 333 26,000  Level Memphis Center
Fri 09:24:32 AM 32.9444 -87.9289 248° West 309 356 26,000  Level Memphis Center
Fri 09:25:32 AM 32.9131 -88.0286 249° West 326 375 26,000  Level Memphis Center
Fri 09:26:32 AM 32.8753 -88.1261 245° Southwest 326 375 26,000  Level Memphis Center
Fri 09:27:32 AM 32.8417 -88.2308 249° West 331 381 26,000  Level Memphis Center
Fri 09:28:32 AM 32.8097 -88.3306 249° West 337 388 26,000  Level Memphis Center
Fri 09:29:32 AM 32.7717 -88.4300 246° West 337 388 26,000 -50 Level Memphis Center
Fri 09:30:32 AM 32.7356 -88.5297 247° West 337 388 25,900  Descending Memphis Center
Fri 09:31:32 AM 32.7017 -88.6317 248° West 337 388 26,000 50 Climbing Memphis Center
Fri 09:32:32 AM 32.6694 -88.7236 247° West 337 388 26,000  Level Memphis Center
Fri 09:33:32 AM 32.6353 -88.8228 248° West 343 395 26,000  Level Memphis Center
Fri 09:35:32 AM 32.5603 -89.0264 246° West 337 388 26,000  Level Memphis Center
Fri 09:36:32 AM 32.5281 -89.1278 249° West 337 388 26,000  Level Memphis Center
Fri 09:37:32 AM 32.4914 -89.2292 247° West 337 388 26,000  Level Memphis Center
Fri 09:38:32 AM 32.4525 -89.3283 245° Southwest 337 388 26,000  Level Memphis Center
Fri 09:39:32 AM 32.4158 -89.4294 247° West 337 388 26,000  Level Memphis Center
Fri 09:40:32 AM 32.3831 -89.5331 249° West 337 388 26,000  Level Memphis Center
Fri 09:41:32 AM 32.3483 -89.6344 248° West 337 388 26,000  Level Memphis Center
Fri 09:42:32 AM 32.3114 -89.7378 247° West 337 388 26,000  Level Memphis Center
Fri 09:43:32 AM 32.2700 -89.8339 243° Southwest 337 388 26,000  Level Memphis Center
Fri 09:44:32 AM 32.2264 -89.9350 243° Southwest 342 394 26,000  Level Memphis Center
Fri 09:45:32 AM 32.1914 -90.0381 248° West 342 394 26,000  Level Memphis Center
Fri 09:46:32 AM 32.1664 -90.1464 255° West 342 394 26,000 -100 Level Memphis Center
Fri 09:47:32 AM 32.1353 -90.2519 251° West 342 394 25,800 -50 Descending Memphis Center
Fri 09:48:32 AM 32.0875 -90.3475 239° Southwest 342 394 25,900 100 Climbing Memphis Center
Fri 09:49:32 AM 32.0289 -90.4333 231° Southwest 337 388 26,000 50 Climbing Memphis Center
Fri 09:50:32 AM 31.9808 -90.5264 239° Southwest 337 388 26,000  Level Memphis Center
Fri 09:51:32 AM 31.9619 -90.6364 259° West 337 388 26,000  Level Memphis Center
Fri 09:52:40 AM 31.9692 -90.7753 274° West 341 392 26,000  Level Houston Center
Fri 09:53:42 AM 31.9486 -90.8767 257° West 339 390 26,000  Level Houston Center
Fri 09:54:44 AM 31.9186 -90.9792 251° West 332 382 26,000  Level Houston Center
Fri 09:55:46 AM 31.8703 -91.0742 239° Southwest 337 388 26,000  Level Houston Center
Fri 09:56:48 AM 31.8128 -91.1631 233° Southwest 339 390 26,000 -48 Level Houston Center
Fri 09:57:50 AM 31.7536 -91.2747 238° Southwest 336 387 25,900  Descending Houston Center
Fri 09:58:52 AM 31.7383 -91.3847 261° West 337 388 26,000 48 Climbing Houston Center
Fri 09:59:54 AM 31.7322 -91.4936 266° West 335 386 26,000  Level Houston Center
Fri 10:00:56 AM 31.6989 -91.5964 249° West 337 388 26,000  Level Houston Center
Fri 10:01:58 AM 31.6367 -91.6797 229° Southwest 335 386 26,000  Level Houston Center
Fri 10:03:00 AM 31.5583 -91.7458 216° Southwest 341 392 26,000 -48 Level Houston Center
Fri 10:04:02 AM 31.4697 -91.8311 219° Southwest 343 395 25,900  Descending Houston Center
Fri 10:05:04 AM 31.4244 -91.9269 241° Southwest 338 389 26,000 48 Climbing Houston Center
Fri 10:06:06 AM 31.3836 -92.0256 244° Southwest 336 387 26,000  Level Houston Center
Fri 10:07:08 AM 31.3464 -92.1308 248° West 338 389 26,000  Level Houston Center
Fri 10:08:09 AM 31.3161 -92.2350 251° West 338 389 26,000  Level Houston Center
Fri 10:09:12 AM 31.2856 -92.3389 251° West 338 389 26,000  Level Houston Center
Fri 10:10:13 AM 31.2533 -92.4431 250° West 340 391 26,000  Level Houston Center
Fri 10:11:15 AM 31.2108 -92.5644 248° West 340 391 26,000  Level Houston Center
Fri 10:12:17 AM 31.1750 -92.6669 248° West 342 394 26,000  Level Houston Center
Fri 10:13:19 AM 31.1392 -92.7669 247° West 337 388 26,000  Level Houston Center
Fri 10:14:21 AM 31.1019 -92.8678 247° West 339 390 26,000  Level Houston Center
Fri 10:15:23 AM 31.0653 -92.9689 247° West 340 391 26,000  Level Houston Center
Fri 10:16:25 AM 31.0281 -93.0694 247° West 340 391 26,000  Level Houston Center
Fri 10:17:27 AM 30.9842 -93.1919 247° West 342 394 26,000  Level Houston Center
Fri 10:18:29 AM 30.9483 -93.2936 248° West 343 395 26,000  Level Houston Center
Fri 10:19:31 AM 30.9125 -93.3958 248° West 342 394 26,000 -48 Level Houston Center
Fri 10:20:34 AM 30.8756 -93.4964 247° West 342 394 25,900 -480 Descending Houston Center
Fri 10:21:36 AM 30.8375 -93.6011 247° West 352 405 25,000 -726 Descending Houston Center
Fri 10:22:38 AM 30.7925 -93.7281 248° West 356 410 24,400 -968 Descending Houston Center
Fri 10:23:40 AM 30.7539 -93.8336 247° West 357 411 23,000 -1,935 Descending Houston Center
Fri 10:24:42 AM 30.7117 -93.9447 246° West 375 432 20,400 -2,226 Descending Houston Center
Fri 10:25:44 AM 30.6761 -94.0478 248° West 352 405 18,400 -2,129 Descending Houston Center
Fri 10:26:46 AM 30.6419 -94.1447 248° West 332 382 16,000 -2,571 Descending Houston Center
Fri 10:27:29 AM 30.6092 -94.2278 245° Southwest 324 373 13,900 -2,806 Descending Houston Center
Fri 10:27:48 AM 30.5983 -94.2592 248° West 326 375 13,100 -1,704 Descending Houston Center
Fri 10:28:50 AM 30.5633 -94.3514 246° West 319 367 11,600 -1,443 Descending Houston Center
Fri 10:29:07 AM 30.5547 -94.3758 248° West 302 348 11,200 -1,258 Descending Houston Center
Fri 10:29:52 AM 30.5339 -94.4394 249° West 302 348 10,300 -1,397 Descending Houston Center
Fri 10:31:03 AM 30.4897 -94.5517 245° Southwest 293 337 8,500 -1,355 Descending Houston Center
Fri 10:31:56 AM 30.4614 -94.6222 245° Southwest 291 335 7,500 -1,086 Descending Houston Center
Fri 10:32:59 AM 30.4394 -94.7064 253° West 279 321 6,400 -912 Descending Houston Center
Fri 10:34:01 AM 30.4144 -94.7942 252° West 272 313 5,600 -629 Descending Houston Center
Fri 10:35:03 AM 30.3908 -94.8761 252° West 275 316 5,100 -281 Descending Houston Center
Fri 10:36:09 AM 30.3625 -94.9778 252° West 270 311 5,000 -242 Descending Houston Center
Fri 10:37:07 AM 30.3469 -95.0408 254° West 266 306 4,600 -513 Descending Houston Center
Fri 10:38:06 AM 30.3225 -95.1353 253° West 268 308 4,000 -300 Descending Houston Center
Fri 10:39:07 AM 30.3131 -95.2139 262° West 249 287 4,000 -443 Level Houston Center
Fri 10:40:08 AM 30.2997 -95.2978 260° West 251 289 3,100 -469 Descending Houston Center
Fri 10:41:15 AM 30.2886 -95.3814 261° West 231 266 3,000 -49 Descending Houston Center
Fri 10:42:10 AM 30.2814 -95.4403 262° West 196 226 3,000  Level Houston Center
Fri 10:43:11 AM 30.2681 -95.5025 256° West 209 241 3,000 -49 Level Houston Center
Fri 10:44:12 AM 30.2381 -95.5664 241° Southwest 214 246 2,900  Descending Houston Center
Fri 10:45:13 AM 30.1936 -95.6081 219° Southwest 203 234 3,000 47 Climbing Houston Center
Fri 10:46:20 AM 30.1328 -95.6344 201° Southwest 228 262 3,000  Level Houston Center
Fri 10:47:22 AM 30.0733 -95.6486 192° South 220 253 3,000  Level Houston Center
Fri 10:48:31 AM 30.0161 -95.6383 171° South 226 260 3,000  Level Houston Center
Fri 10:49:18 AM 29.9575 -95.6456 186° South 225 259 3,000  Level Houston Center
Fri 10:49:33 AM 29.9442 -95.6436 173° South 222 255 3,000 -98 Level Houston Center
Fri 10:50:19 AM 29.8961 -95.6383 175° South 221 254 2,900  Descending Houston Center
Fri 10:50:35 AM 29.8822 -95.6356 170° South 226 260 3,000 -716 Climbing Houston Center
Fri 10:51:26 AM 29.8311 -95.6169 162° South 237 273 2,100 -561 Descending Houston Center
Fri 10:52:22 AM 29.8386 -95.5608 81° East 198 228 2,000 -82 Descending Houston Center
Fri 10:52:39 AM 29.8422 -95.5489 71° East 210 242 2,000  Level Houston Center
Fri 10:53:22 AM 29.8778 -95.5294 25° Northeast 173 199 2,000  Level Houston Center
Fri 10:53:41 AM 29.8869 -95.5278 North 194 223 2,000 -295 Level Houston Center
Fri 10:54:23 AM 29.9264 -95.5333 353° North 171 197 1,700 -290 Descending Houston Center
Fri 10:54:43 AM 29.9339 -95.5353 347° North 178 205 1,700  Level Houston Center
Fri 10:55:31 AM 29.9817 -95.5414 354° North 179 206 1,700 -408 Level Houston Center
Fri 10:56:26 AM 30.0222 -95.5461 354° North 141 162 1,000 -857 Descending Houston Center
Fri 10:56:48 AM 30.0322 -95.5469 356° North 158 182 600 -1,091 Descending Houston Center

Login

Don't have an account? Register now (free) for customized features, flight alerts, and more!